createdAt,value
2019-03-23T00:03:38.555Z,99.90
2019-03-23T00:08:42.783Z,99.90
2019-03-23T00:13:47.015Z,99.90
2019-03-23T00:18:51.746Z,99.90
2019-03-23T00:23:55.981Z,99.90
2019-03-23T00:29:00.230Z,99.90
2019-03-23T00:34:04.466Z,99.90
2019-03-23T00:39:09.000Z,99.90
2019-03-23T00:44:13.644Z,99.90
2019-03-23T00:49:17.900Z,99.90
2019-03-23T00:54:22.137Z,99.90
2019-03-23T00:59:26.691Z,99.90
2019-03-23T01:04:30.929Z,99.90
2019-03-23T01:09:35.165Z,99.90
2019-03-23T01:14:40.414Z,99.90
2019-03-23T01:19:44.716Z,99.90
2019-03-23T01:24:49.040Z,99.90
2019-03-23T01:29:53.850Z,99.90
2019-03-23T01:34:58.083Z,99.90
2019-03-23T01:40:02.296Z,99.90
2019-03-23T01:45:07.580Z,99.90
2019-03-23T01:50:12.242Z,99.90
2019-03-23T01:55:16.461Z,99.90
2019-03-23T02:00:20.958Z,99.90
2019-03-23T02:05:25.581Z,99.90
2019-03-23T02:10:29.801Z,99.90
2019-03-23T02:15:34.316Z,99.90
2019-03-23T02:20:38.536Z,99.90
2019-03-23T02:25:49.196Z,99.90
2019-03-23T02:30:53.409Z,99.90
2019-03-23T02:35:57.875Z,99.90
2019-03-23T02:41:02.110Z,99.90
2019-03-23T02:46:06.340Z,99.90
2019-03-23T02:51:10.890Z,99.90
2019-03-23T02:56:15.321Z,99.90
2019-03-23T03:01:19.540Z,99.90
2019-03-23T03:06:24.091Z,99.90
2019-03-23T03:11:28.335Z,99.90
2019-03-23T03:16:32.562Z,99.90
2019-03-23T03:21:36.794Z,99.90
2019-03-23T03:26:41.012Z,99.90
2019-03-23T03:31:45.226Z,99.90
2019-03-23T03:36:49.451Z,99.90
2019-03-23T03:41:54.074Z,99.90
2019-03-23T03:46:58.617Z,99.90
2019-03-23T03:52:02.832Z,99.90
2019-03-23T03:57:07.583Z,99.90
2019-03-23T04:02:11.797Z,99.90
2019-03-23T04:07:16.026Z,99.90
2019-03-23T04:12:20.601Z,99.90
2019-03-23T04:17:24.859Z,99.90
2019-03-23T04:22:29.587Z,99.90
2019-03-23T04:27:33.886Z,99.90
2019-03-23T04:32:38.079Z,99.90
2019-03-23T04:37:42.298Z,99.90
2019-03-23T04:42:46.524Z,99.90
2019-03-23T04:47:50.725Z,99.90
2019-03-23T04:53:14.172Z,99.90
2019-03-23T04:58:18.729Z,99.90
2019-03-23T05:03:23.433Z,99.90
2019-03-23T05:08:33.331Z,99.90
2019-03-23T05:13:33.785Z,99.90
2019-03-23T05:18:38.314Z,99.90
2019-03-23T05:23:42.840Z,99.90
2019-03-23T05:28:47.057Z,99.90
2019-03-23T05:33:51.281Z,99.90
2019-03-23T05:38:56.269Z,99.90
2019-03-23T05:44:00.712Z,99.90
2019-03-23T05:49:05.250Z,99.90
2019-03-23T05:54:09.449Z,99.90
2019-03-23T05:59:13.680Z,99.90
2019-03-23T06:04:18.147Z,99.90
2019-03-23T06:09:22.362Z,99.90
2019-03-23T06:14:26.939Z,99.90
2019-03-23T06:19:31.525Z,99.90
2019-03-23T06:24:35.790Z,99.90
2019-03-23T06:29:40.058Z,99.90
2019-03-23T06:34:44.262Z,99.90
2019-03-23T06:39:48.737Z,99.90
2019-03-23T06:44:53.019Z,99.90
2019-03-23T06:49:57.270Z,99.90
2019-03-23T06:55:01.497Z,99.90
2019-03-23T07:00:08.126Z,99.90
2019-03-23T07:05:13.184Z,99.90
2019-03-23T07:10:17.740Z,99.90
2019-03-23T07:15:21.960Z,99.90
2019-03-23T07:20:26.624Z,99.90
2019-03-23T07:25:30.874Z,99.90
2019-03-23T07:30:35.782Z,99.90
2019-03-23T07:35:39.967Z,99.90
2019-03-23T07:40:44.190Z,99.90
2019-03-23T07:45:48.406Z,99.90
2019-03-23T07:50:52.657Z,99.90
2019-03-23T07:55:56.928Z,99.90
2019-03-23T08:01:01.710Z,99.80
2019-03-23T08:06:05.972Z,99.20
2019-03-23T08:11:10.194Z,98.50
2019-03-23T08:16:14.417Z,96.00
2019-03-23T08:21:18.711Z,85.10
2019-03-23T08:26:22.983Z,72.70
2019-03-23T08:31:27.209Z,63.60
2019-03-23T08:36:31.422Z,55.30
2019-03-23T08:41:35.693Z,50.40
2019-03-23T08:46:40.267Z,45.50
2019-03-23T08:51:44.893Z,42.40
2019-03-23T08:56:49.203Z,37.50
2019-03-23T09:01:53.429Z,33.50
2019-03-23T09:06:57.645Z,30.70
2019-03-23T09:12:01.850Z,29.30
2019-03-23T09:17:06.142Z,28.30
2019-03-23T09:22:10.365Z,27.00
2019-03-23T09:27:15.197Z,26.10
2019-03-23T09:32:19.749Z,25.50
2019-03-23T09:37:24.237Z,26.10
2019-03-23T09:42:28.474Z,26.00
2019-03-23T09:47:32.699Z,25.00
2019-03-23T09:52:36.974Z,25.10
2019-03-23T09:57:41.225Z,24.60
2019-03-23T10:02:45.513Z,23.50
2019-03-23T10:07:49.718Z,23.50
2019-03-23T10:12:53.939Z,23.20
2019-03-23T10:17:58.554Z,21.70
2019-03-23T10:23:02.892Z,20.70
2019-03-23T10:28:07.405Z,21.80
2019-03-23T10:33:11.976Z,22.80
2019-03-23T10:38:17.002Z,22.40
2019-03-23T10:43:21.578Z,23.10
2019-03-23T10:48:25.781Z,23.00
2019-03-23T10:53:30.327Z,24.30
2019-03-23T10:58:34.629Z,24.70
2019-03-23T11:03:38.864Z,23.90
2019-03-23T11:08:43.076Z,23.50
2019-03-23T11:13:47.330Z,25.40
2019-03-23T11:18:51.858Z,25.50
2019-03-23T11:23:56.085Z,25.10
2019-03-23T11:29:00.440Z,24.90
2019-03-23T11:34:05.050Z,24.70
2019-03-23T11:39:09.570Z,23.40
2019-03-23T11:44:14.145Z,23.00
2019-03-23T11:49:18.759Z,23.60
2019-03-23T11:54:22.979Z,24.50
2019-03-23T11:59:27.263Z,25.50
2019-03-23T12:04:31.769Z,26.10
2019-03-23T12:09:36.304Z,25.40
2019-03-23T12:14:40.529Z,26.10
2019-03-23T12:19:44.813Z,26.20
2019-03-23T12:24:49.007Z,25.50
2019-03-23T12:29:53.229Z,26.10
2019-03-23T12:34:57.800Z,25.60
2019-03-23T12:40:02.410Z,26.00
2019-03-23T12:45:07.359Z,26.30
2019-03-23T12:50:11.906Z,25.40
2019-03-23T12:55:16.137Z,25.80
2019-03-23T13:00:20.518Z,25.60
2019-03-23T13:05:25.053Z,25.30
2019-03-23T13:10:29.305Z,26.10
2019-03-23T13:15:33.845Z,26.30
2019-03-23T13:20:38.113Z,27.20
2019-03-23T13:25:42.393Z,26.30
2019-03-23T13:30:46.669Z,25.80
2019-03-23T13:35:50.878Z,26.30
2019-03-23T13:40:55.112Z,25.90
2019-03-23T13:46:03.045Z,26.40
2019-03-23T13:51:07.394Z,26.90
2019-03-23T13:56:11.615Z,27.70
2019-03-23T14:01:16.101Z,28.80
2019-03-23T14:06:20.401Z,30.60
2019-03-23T14:11:24.657Z,30.20
2019-03-23T14:16:29.183Z,29.60
2019-03-23T14:21:33.409Z,29.00
2019-03-23T14:26:37.957Z,28.70
2019-03-23T14:31:42.265Z,29.30
2019-03-23T14:36:46.521Z,30.70
2019-03-23T14:41:51.208Z,33.10
2019-03-23T14:46:58.307Z,32.50
2019-03-23T14:52:02.585Z,33.00
2019-03-23T14:57:06.818Z,32.90
2019-03-23T15:02:11.105Z,33.30
2019-03-23T15:07:15.850Z,33.00
2019-03-23T15:12:21.361Z,32.00
2019-03-23T15:17:25.636Z,33.30
2019-03-23T15:22:29.885Z,32.90
2019-03-23T15:27:35.127Z,32.80
2019-03-23T15:32:39.657Z,33.50
2019-03-23T15:37:44.327Z,33.40
2019-03-23T15:42:48.614Z,33.90
2019-03-23T15:47:53.091Z,35.30
2019-03-23T15:52:57.641Z,35.50
2019-03-23T15:58:01.955Z,35.30
2019-03-23T16:03:06.527Z,34.40
2019-03-23T16:08:11.057Z,35.70
2019-03-23T16:13:15.311Z,37.70
2019-03-23T16:18:19.837Z,38.70
2019-03-23T16:23:24.070Z,40.60
2019-03-23T16:28:28.309Z,41.20
2019-03-23T16:33:32.573Z,42.80
2019-03-23T16:38:36.822Z,44.60
2019-03-23T16:43:42.348Z,45.30
2019-03-23T16:48:46.575Z,46.40
2019-03-23T16:53:51.113Z,48.00
2019-03-23T16:58:55.634Z,48.40
2019-03-23T17:04:00.005Z,50.50
2019-03-23T17:09:05.022Z,54.80
2019-03-23T17:14:09.243Z,59.10
2019-03-23T17:19:13.441Z,63.00
2019-03-23T17:24:17.774Z,74.30
2019-03-23T17:29:22.405Z,86.50
2019-03-23T17:34:26.630Z,88.60
2019-03-23T17:39:30.933Z,90.20
2019-03-23T17:44:35.280Z,90.50
2019-03-23T17:49:39.541Z,90.90
2019-03-23T17:54:43.835Z,90.90
2019-03-23T17:59:48.213Z,91.20
2019-03-23T18:04:52.465Z,90.60
2019-03-23T18:09:56.670Z,90.40
2019-03-23T18:15:01.459Z,90.00
2019-03-23T18:20:06.558Z,88.40
2019-03-23T18:25:12.445Z,89.00
2019-03-23T18:30:33.642Z,90.30
2019-03-23T18:35:38.016Z,90.40
2019-03-23T18:40:42.309Z,90.20
2019-03-23T18:45:46.615Z,89.40
2019-03-23T18:50:51.718Z,87.10
2019-03-23T18:55:55.974Z,88.00
2019-03-23T19:01:00.791Z,88.30
2019-03-23T19:06:05.119Z,87.70
2019-03-23T19:11:09.658Z,90.10
2019-03-23T19:16:14.010Z,88.50
2019-03-23T19:21:18.225Z,90.20
2019-03-23T19:26:23.054Z,90.00
2019-03-23T19:31:27.342Z,90.40
2019-03-23T19:36:31.598Z,90.90
2019-03-23T19:41:35.837Z,90.70
2019-03-23T19:46:40.080Z,91.40
2019-03-23T19:51:44.701Z,91.10
2019-03-23T19:56:53.894Z,91.40
2019-03-23T20:01:58.167Z,92.40
2019-03-23T20:07:02.391Z,91.60
2019-03-23T20:12:06.678Z,92.20
2019-03-23T20:17:11.664Z,92.00
2019-03-23T20:22:15.868Z,92.40
2019-03-23T20:27:20.089Z,92.50
2019-03-23T20:32:24.326Z,93.70
2019-03-23T20:37:28.590Z,93.60
2019-03-23T20:42:32.795Z,93.50
2019-03-23T20:47:39.237Z,94.90
2019-03-23T20:52:46.229Z,94.40
2019-03-23T20:57:50.441Z,95.00
2019-03-23T21:02:54.838Z,95.80
2019-03-23T21:07:59.338Z,96.40
2019-03-23T21:13:03.973Z,97.00
2019-03-23T21:18:08.174Z,97.30
2019-03-23T21:23:12.378Z,97.90
2019-03-23T21:28:16.594Z,98.00
2019-03-23T21:33:20.812Z,97.70
2019-03-23T21:38:25.459Z,97.70
2019-03-23T21:43:30.004Z,97.60
2019-03-23T21:48:34.259Z,97.50
2019-03-23T21:53:38.874Z,97.40
2019-03-23T21:58:43.425Z,97.30
2019-03-23T22:03:47.650Z,97.10
2019-03-23T22:08:51.865Z,96.80
2019-03-23T22:13:56.087Z,96.50
2019-03-23T22:19:01.007Z,96.50
2019-03-23T22:24:05.259Z,97.40
2019-03-23T22:29:09.479Z,96.60
2019-03-23T22:34:13.681Z,96.60
2019-03-23T22:39:18.140Z,96.80
2019-03-23T22:44:22.363Z,97.10
2019-03-23T22:49:26.573Z,97.00
2019-03-23T22:54:30.794Z,97.00
2019-03-23T22:59:35.598Z,97.60
2019-03-23T23:04:40.181Z,97.80
2019-03-23T23:09:44.398Z,97.70
2019-03-23T23:14:48.625Z,97.60
2019-03-23T23:19:52.857Z,97.80
2019-03-23T23:24:57.383Z,97.80
2019-03-23T23:30:01.644Z,98.00
2019-03-23T23:35:06.464Z,98.90
2019-03-23T23:40:11.105Z,98.20
2019-03-23T23:45:16.052Z,98.40
2019-03-23T23:50:20.341Z,98.80
2019-03-23T23:55:24.560Z,98.90
